createdAt,value
2023-04-19T00:02:02.464Z,10.50
2023-04-19T00:04:30.259Z,10.50
2023-04-19T00:06:58.496Z,10.52
2023-04-19T00:09:25.213Z,10.54
2023-04-19T00:11:52.416Z,10.48
2023-04-19T00:14:18.974Z,10.43
2023-04-19T00:16:45.698Z,10.36
2023-04-19T00:19:12.362Z,10.28
2023-04-19T00:21:39.023Z,10.19
2023-04-19T00:24:05.815Z,10.17
2023-04-19T00:26:32.359Z,10.15
2023-04-19T00:28:58.896Z,10.12
2023-04-19T00:31:25.650Z,10.08
2023-04-19T00:33:52.252Z,10.02
2023-04-19T00:36:18.808Z,9.98
2023-04-19T00:38:45.500Z,9.94
2023-04-19T00:41:12.065Z,9.91
2023-04-19T00:43:38.694Z,9.88
2023-04-19T00:46:05.758Z,9.87
2023-04-19T00:48:32.451Z,9.86
2023-04-19T00:50:59.315Z,9.87
2023-04-19T00:53:25.861Z,9.88
2023-04-19T00:55:52.700Z,9.90
2023-04-19T00:58:19.391Z,9.90
2023-04-19T01:00:46.077Z,9.90
2023-04-19T01:03:13.683Z,9.91
2023-04-19T01:05:40.612Z,9.91
2023-04-19T01:08:08.423Z,9.89
2023-04-19T01:10:35.058Z,9.87
2023-04-19T01:13:01.622Z,9.84
2023-04-19T01:15:28.190Z,9.83
2023-04-19T01:17:56.050Z,9.81
2023-04-19T01:20:22.792Z,9.79
2023-04-19T01:22:49.290Z,9.78
2023-04-19T01:25:16.073Z,9.75
2023-04-19T01:27:42.908Z,9.72
2023-04-19T01:30:09.734Z,9.70
2023-04-19T01:32:36.342Z,9.68
2023-04-19T01:35:02.981Z,9.66
2023-04-19T01:37:29.662Z,9.64
2023-04-19T01:39:56.243Z,9.62
2023-04-19T01:42:23.030Z,9.59
2023-04-19T01:44:49.651Z,9.55
2023-04-19T01:47:16.218Z,9.52
2023-04-19T01:49:42.786Z,9.49
2023-04-19T01:52:09.342Z,9.47
2023-04-19T01:54:35.860Z,9.44
2023-04-19T01:57:02.695Z,9.41
2023-04-19T01:59:29.269Z,9.37
2023-04-19T02:01:56.096Z,9.35
2023-04-19T02:04:22.754Z,9.32
2023-04-19T02:06:49.418Z,9.30
2023-04-19T02:09:16.214Z,9.29
2023-04-19T02:11:42.846Z,9.30
2023-04-19T02:14:09.409Z,9.30
2023-04-19T02:16:36.494Z,9.29
2023-04-19T02:19:03.327Z,9.25
2023-04-19T02:21:29.892Z,9.21
2023-04-19T02:23:56.494Z,9.17
2023-04-19T02:26:24.569Z,9.14
2023-04-19T02:28:52.251Z,9.11
2023-04-19T02:31:19.053Z,9.08
2023-04-19T02:33:46.878Z,9.04
2023-04-19T02:36:13.456Z,9.03
2023-04-19T02:38:40.001Z,9.00
2023-04-19T02:41:06.563Z,8.97
2023-04-19T02:43:33.080Z,8.97
2023-04-19T02:45:59.729Z,8.94
2023-04-19T02:48:26.884Z,8.95
2023-04-19T02:50:53.464Z,8.94
2023-04-19T02:53:20.039Z,8.95
2023-04-19T02:55:46.607Z,8.93
2023-04-19T02:58:13.720Z,8.95
2023-04-19T03:00:40.522Z,8.97
2023-04-19T03:03:07.687Z,9.03
2023-04-19T03:05:37.240Z,9.07
2023-04-19T03:08:03.868Z,9.07
2023-04-19T03:10:30.467Z,9.05
2023-04-19T03:12:57.040Z,9.04
2023-04-19T03:15:23.578Z,9.02
2023-04-19T03:17:50.438Z,9.01
2023-04-19T03:20:17.198Z,8.97
2023-04-19T03:22:43.810Z,8.94
2023-04-19T03:25:12.761Z,8.96
2023-04-19T03:27:39.460Z,9.00
2023-04-19T03:30:06.618Z,9.01
2023-04-19T03:32:33.342Z,9.03
2023-04-19T03:34:59.924Z,9.04
2023-04-19T03:37:26.464Z,9.06
2023-04-19T03:39:53.106Z,9.08
2023-04-19T03:42:19.681Z,9.12
2023-04-19T03:44:46.241Z,9.15
2023-04-19T03:47:12.830Z,9.18
2023-04-19T03:49:39.397Z,9.20
2023-04-19T03:52:05.984Z,9.20
2023-04-19T03:54:32.623Z,9.23
2023-04-19T03:56:59.554Z,9.23
2023-04-19T03:59:26.268Z,9.28
2023-04-19T04:01:52.934Z,9.30
2023-04-19T04:04:19.718Z,9.34
2023-04-19T04:06:46.560Z,9.35
2023-04-19T04:09:13.091Z,9.35
2023-04-19T04:11:39.640Z,9.38
2023-04-19T04:14:06.867Z,9.44
2023-04-19T04:16:33.491Z,9.52
2023-04-19T04:19:00.214Z,9.62
2023-04-19T04:21:27.370Z,9.71
2023-04-19T04:23:54.015Z,9.79
2023-04-19T04:26:45.546Z,9.83
2023-04-19T04:29:12.553Z,9.94
2023-04-19T04:31:39.270Z,9.96
2023-04-19T04:34:06.489Z,9.99
2023-04-19T04:36:33.100Z,10.04
2023-04-19T04:39:02.006Z,10.09
2023-04-19T04:41:31.395Z,10.11
2023-04-19T04:44:11.436Z,10.12
2023-04-19T04:46:39.366Z,10.12
2023-04-19T04:49:06.586Z,10.12
2023-04-19T04:51:33.261Z,10.19
2023-04-19T04:53:59.916Z,10.25
2023-04-19T04:56:27.110Z,10.31
2023-04-19T04:58:53.799Z,10.37
2023-04-19T05:01:21.612Z,10.50
2023-04-19T05:03:48.276Z,10.60
2023-04-19T05:06:14.870Z,10.65
2023-04-19T05:08:41.591Z,10.66
2023-04-19T05:11:08.918Z,10.67
2023-04-19T05:13:35.777Z,10.69
2023-04-19T05:16:02.413Z,10.74
2023-04-19T05:18:29.031Z,10.81
2023-04-19T05:20:56.821Z,10.86
2023-04-19T05:23:23.349Z,10.91
2023-04-19T05:25:49.963Z,10.94
2023-04-19T05:28:16.551Z,10.99
2023-04-19T05:30:43.137Z,11.04
2023-04-19T05:33:09.812Z,11.10
2023-04-19T05:35:36.570Z,11.15
2023-04-19T05:38:03.499Z,11.23
2023-04-19T05:40:30.431Z,11.31
2023-04-19T05:42:57.016Z,11.30
2023-04-19T05:45:23.788Z,11.32
2023-04-19T05:47:50.472Z,11.34
2023-04-19T05:50:18.474Z,11.41
2023-04-19T05:52:45.053Z,11.45
2023-04-19T05:55:11.626Z,11.50
2023-04-19T05:57:38.206Z,11.55
2023-04-19T06:00:05.215Z,11.63
2023-04-19T06:02:32.428Z,11.70
2023-04-19T06:05:02.499Z,11.82
2023-04-19T06:07:34.200Z,12.00
2023-04-19T06:10:04.587Z,12.13
2023-04-19T06:12:31.175Z,12.21
2023-04-19T06:14:57.713Z,12.30
2023-04-19T06:17:25.648Z,12.33
2023-04-19T06:19:52.662Z,12.36
2023-04-19T06:22:19.363Z,12.36
2023-04-19T06:24:46.169Z,12.34
2023-04-19T06:27:12.740Z,12.36
2023-04-19T06:29:39.441Z,12.41
2023-04-19T06:32:06.173Z,12.47
2023-04-19T06:34:32.758Z,12.55
2023-04-19T06:36:59.274Z,12.63
2023-04-19T06:39:25.962Z,12.69
2023-04-19T06:41:52.651Z,12.72
2023-04-19T06:44:19.650Z,12.75
2023-04-19T06:46:46.345Z,12.85
2023-04-19T06:49:12.849Z,12.91
2023-04-19T06:51:39.536Z,12.95
2023-04-19T06:54:06.378Z,13.01
2023-04-19T06:56:39.841Z,13.06
2023-04-19T06:59:06.458Z,13.13
2023-04-19T07:01:33.315Z,13.18
2023-04-19T07:04:00.067Z,13.22
2023-04-19T07:06:27.073Z,13.28
2023-04-19T07:08:53.729Z,13.35
2023-04-19T07:11:21.931Z,13.38
2023-04-19T07:13:49.165Z,13.45
2023-04-19T07:16:15.873Z,13.45
2023-04-19T07:18:42.529Z,13.44
2023-04-19T07:21:09.170Z,13.47
2023-04-19T07:23:36.060Z,13.54
2023-04-19T07:26:02.702Z,13.64
2023-04-19T07:28:29.608Z,13.77
2023-04-19T07:30:56.208Z,13.86
2023-04-19T07:33:28.171Z,13.94
2023-04-19T07:35:55.033Z,13.96
2023-04-19T07:38:21.699Z,13.90
2023-04-19T07:40:48.241Z,13.89
2023-04-19T07:43:15.038Z,13.92
2023-04-19T07:45:41.848Z,13.93
2023-04-19T07:48:08.426Z,13.97
2023-04-19T07:50:35.162Z,14.03
2023-04-19T07:53:01.826Z,14.10
2023-04-19T07:55:28.451Z,14.17
2023-04-19T07:57:54.963Z,14.16
2023-04-19T08:00:21.844Z,14.11
2023-04-19T08:02:49.269Z,14.17
2023-04-19T08:05:20.051Z,14.25
2023-04-19T08:07:46.889Z,14.32
2023-04-19T08:10:13.581Z,14.40
2023-04-19T08:12:47.779Z,14.46
2023-04-19T08:16:03.682Z,14.51
2023-04-19T08:18:10.463Z,14.58
2023-04-19T08:20:37.098Z,14.69
2023-04-19T08:23:14.403Z,14.82
2023-04-19T08:25:48.150Z,14.96
2023-04-19T08:28:14.743Z,15.03
2023-04-19T08:30:41.415Z,15.04
2023-04-19T08:33:08.481Z,15.05
2023-04-19T08:35:36.241Z,15.10
2023-04-19T08:38:04.563Z,15.14
2023-04-19T08:40:31.651Z,15.20
2023-04-19T08:42:58.406Z,15.24
2023-04-19T08:45:28.869Z,15.25
2023-04-19T08:48:01.197Z,15.22
2023-04-19T08:53:08.415Z,15.40
2023-04-19T08:56:03.536Z,15.51
2023-04-19T09:01:06.724Z,15.52
2023-04-19T09:03:38.547Z,15.55
2023-04-19T09:06:12.336Z,15.58
2023-04-19T09:08:39.919Z,15.59
2023-04-19T09:11:06.937Z,15.61
2023-04-19T09:13:34.170Z,15.71
2023-04-19T09:16:00.933Z,15.82
2023-04-19T09:18:30.398Z,15.84
2023-04-19T09:20:58.213Z,15.83
2023-04-19T09:23:25.683Z,15.81
2023-04-19T09:28:31.855Z,16.06
2023-04-19T09:31:10.725Z,16.18
2023-04-19T09:33:44.717Z,16.30
2023-04-19T09:36:13.102Z,16.40
2023-04-19T09:38:48.655Z,16.51
2023-04-19T09:41:15.300Z,16.65
2023-04-19T09:46:30.310Z,16.87
2023-04-19T09:49:30.268Z,16.90
2023-04-19T09:52:07.914Z,16.95
2023-04-19T09:54:34.592Z,16.96
2023-04-19T09:57:01.781Z,17.02
2023-04-19T09:59:28.472Z,17.08
2023-04-19T10:01:56.450Z,17.18
2023-04-19T10:04:33.460Z,17.31
2023-04-19T10:07:28.570Z,17.43
2023-04-19T10:09:57.999Z,17.58
2023-04-19T10:14:57.497Z,17.92
2023-04-19T10:17:24.722Z,18.09
2023-04-19T10:19:59.656Z,18.46
2023-04-19T10:22:26.442Z,19.42
2023-04-19T10:25:09.964Z,20.44
2023-04-19T10:27:36.547Z,21.41
2023-04-19T10:30:07.587Z,22.20
2023-04-19T10:32:39.204Z,22.83
2023-04-19T10:35:24.804Z,23.53
2023-04-19T10:38:14.187Z,24.03
2023-04-19T10:41:03.723Z,24.63
2023-04-19T10:43:31.138Z,25.36
2023-04-19T10:46:01.755Z,25.72
2023-04-19T10:48:33.405Z,26.05
2023-04-19T10:51:00.163Z,26.14
2023-04-19T10:53:45.857Z,26.27
2023-04-19T10:56:12.735Z,25.80
2023-04-19T10:58:57.909Z,25.20
2023-04-19T11:01:43.578Z,25.11
2023-04-19T11:04:11.601Z,25.35
2023-04-19T11:06:50.638Z,25.62
2023-04-19T11:09:27.423Z,26.07
2023-04-19T11:11:54.643Z,26.52
2023-04-19T11:14:21.672Z,27.04
2023-04-19T11:16:48.242Z,27.37
2023-04-19T11:19:18.558Z,27.66
2023-04-19T11:21:45.993Z,27.72
2023-04-19T11:24:12.856Z,27.87
2023-04-19T11:26:39.542Z,28.07
2023-04-19T11:29:08.936Z,28.30
2023-04-19T11:31:36.269Z,28.51
2023-04-19T11:34:03.411Z,28.67
2023-04-19T11:36:31.924Z,28.77
2023-04-19T11:38:58.495Z,28.47
2023-04-19T11:41:25.340Z,27.95
2023-04-19T11:43:52.045Z,27.93
2023-04-19T11:46:18.800Z,28.27
2023-04-19T11:48:54.592Z,28.65
2023-04-19T11:51:21.797Z,29.04
2023-04-19T11:53:48.402Z,29.39
2023-04-19T11:56:16.363Z,28.78
2023-04-19T11:58:45.157Z,28.35
2023-04-19T12:01:13.278Z,28.33
2023-04-19T12:03:43.286Z,28.67
2023-04-19T12:06:17.357Z,28.94
2023-04-19T12:08:43.969Z,29.33
2023-04-19T12:11:10.629Z,29.63
2023-04-19T12:13:40.853Z,29.27
2023-04-19T12:16:07.874Z,29.14
2023-04-19T12:18:48.421Z,29.29
2023-04-19T12:21:25.702Z,29.36
2023-04-19T12:23:56.501Z,29.09
2023-04-19T12:26:23.273Z,29.36
2023-04-19T12:28:49.933Z,29.51
2023-04-19T12:31:16.672Z,29.88
2023-04-19T12:33:43.248Z,30.11
2023-04-19T12:36:09.884Z,30.33
2023-04-19T12:38:37.657Z,29.85
2023-04-19T12:41:04.320Z,29.59
2023-04-19T12:43:31.945Z,29.73
2023-04-19T12:45:59.069Z,29.89
2023-04-19T12:48:26.138Z,29.63
2023-04-19T12:50:53.024Z,29.33
2023-04-19T12:53:19.715Z,29.12
2023-04-19T12:55:49.850Z,29.09
2023-04-19T12:58:17.506Z,29.32
2023-04-19T13:00:44.642Z,29.12
2023-04-19T13:03:12.663Z,28.24
2023-04-19T13:05:39.354Z,27.37
2023-04-19T13:08:06.156Z,26.31
2023-04-19T13:10:32.705Z,25.36
2023-04-19T13:13:00.755Z,24.72
2023-04-19T13:15:28.651Z,25.02
2023-04-19T13:17:55.847Z,25.05
2023-04-19T13:20:22.521Z,24.58
2023-04-19T13:22:49.202Z,24.05
2023-04-19T13:25:15.800Z,23.70
2023-04-19T13:27:42.406Z,23.32
2023-04-19T13:30:09.241Z,23.31
2023-04-19T13:32:35.969Z,23.87
2023-04-19T13:35:02.544Z,24.66
2023-04-19T13:37:29.811Z,25.31
2023-04-19T13:40:07.016Z,25.79
2023-04-19T13:42:41.771Z,26.16
2023-04-19T13:45:09.472Z,26.51
2023-04-19T13:47:36.131Z,26.84
2023-04-19T13:50:02.722Z,27.18
2023-04-19T13:52:30.010Z,27.33
2023-04-19T13:54:56.625Z,26.78
2023-04-19T13:57:23.191Z,25.80
2023-04-19T13:59:49.735Z,25.18
2023-04-19T14:02:16.447Z,25.38
2023-04-19T14:04:43.126Z,25.60
2023-04-19T14:07:09.983Z,25.89
2023-04-19T14:09:37.105Z,26.06
2023-04-19T14:12:04.518Z,26.17
2023-04-19T14:14:32.479Z,25.97
2023-04-19T14:16:59.164Z,25.41
2023-04-19T14:19:26.311Z,24.95
2023-04-19T14:21:52.964Z,24.70
2023-04-19T14:24:19.595Z,24.45
2023-04-19T14:26:48.682Z,24.09
2023-04-19T14:29:21.148Z,23.98
2023-04-19T14:31:47.832Z,23.81
2023-04-19T14:34:14.466Z,23.71
2023-04-19T14:36:41.051Z,23.67
2023-04-19T14:39:08.471Z,23.54
2023-04-19T14:41:35.050Z,23.26
2023-04-19T14:44:01.640Z,22.86
2023-04-19T14:46:28.372Z,22.46
2023-04-19T14:48:55.002Z,22.21
2023-04-19T14:51:21.525Z,21.91
2023-04-19T14:53:48.037Z,21.57
2023-04-19T14:56:14.632Z,21.24
2023-04-19T14:58:41.153Z,20.79
2023-04-19T15:01:11.552Z,20.36
2023-04-19T15:03:38.328Z,20.05
2023-04-19T15:06:05.362Z,19.69
2023-04-19T15:08:31.967Z,19.38
2023-04-19T15:10:58.515Z,19.11
2023-04-19T15:13:25.163Z,18.96
2023-04-19T15:15:51.930Z,18.89
2023-04-19T15:18:18.546Z,18.80
2023-04-19T15:20:45.158Z,18.70
2023-04-19T15:23:11.748Z,18.65
2023-04-19T15:25:38.365Z,18.53
2023-04-19T15:28:04.906Z,18.39
2023-04-19T15:30:31.510Z,18.26
2023-04-19T15:32:58.145Z,18.24
2023-04-19T15:35:24.713Z,18.34
2023-04-19T15:37:51.413Z,18.31
2023-04-19T15:40:18.045Z,18.22
2023-04-19T15:42:45.254Z,18.11
2023-04-19T15:45:11.874Z,18.11
2023-04-19T15:47:38.520Z,18.04
2023-04-19T15:50:06.693Z,17.90
2023-04-19T15:52:33.305Z,17.78
2023-04-19T15:54:59.904Z,17.68
2023-04-19T15:57:26.540Z,17.64
2023-04-19T15:59:53.109Z,17.57
2023-04-19T16:02:19.943Z,17.45
2023-04-19T16:04:48.385Z,17.36
2023-04-19T16:07:15.143Z,17.26
2023-04-19T16:09:41.726Z,17.16
2023-04-19T16:12:08.310Z,17.04
2023-04-19T16:14:34.979Z,16.87
2023-04-19T16:17:01.536Z,16.72
2023-04-19T16:19:28.181Z,16.67
2023-04-19T16:21:54.777Z,16.60
2023-04-19T16:24:21.328Z,16.53
2023-04-19T16:26:48.109Z,16.50
2023-04-19T16:29:14.883Z,16.47
2023-04-19T16:31:41.696Z,16.38
2023-04-19T16:34:08.530Z,16.26
2023-04-19T16:36:36.420Z,16.17
2023-04-19T16:39:02.997Z,16.12
2023-04-19T16:41:29.933Z,16.05
2023-04-19T16:43:56.569Z,15.99
2023-04-19T16:46:23.182Z,15.93
2023-04-19T16:48:49.889Z,15.88
2023-04-19T16:51:16.432Z,15.79
2023-04-19T16:53:45.415Z,15.71
2023-04-19T16:56:12.228Z,15.65
2023-04-19T16:58:38.846Z,15.59
2023-04-19T17:01:05.652Z,15.53
2023-04-19T17:03:32.385Z,15.44
2023-04-19T17:05:59.054Z,15.36
2023-04-19T17:08:26.430Z,15.31
2023-04-19T17:10:52.989Z,15.28
2023-04-19T17:13:19.652Z,15.20
2023-04-19T17:15:46.598Z,15.16
2023-04-19T17:18:13.282Z,15.10
2023-04-19T17:20:40.105Z,15.03
2023-04-19T17:23:06.788Z,14.96
2023-04-19T17:25:33.389Z,14.92
2023-04-19T17:28:00.021Z,14.87
2023-04-19T17:30:26.662Z,14.82
2023-04-19T17:32:53.374Z,14.76
2023-04-19T17:35:20.149Z,14.69
2023-04-19T17:37:46.769Z,14.64
2023-04-19T17:40:13.344Z,14.58
2023-04-19T17:42:39.904Z,14.54
2023-04-19T17:45:10.988Z,14.50
2023-04-19T17:47:38.275Z,14.44
2023-04-19T17:50:09.146Z,14.41
2023-04-19T17:52:35.747Z,14.39
2023-04-19T17:55:04.397Z,14.35
2023-04-19T17:57:32.072Z,14.29
2023-04-19T17:59:59.259Z,14.24
2023-04-19T18:02:26.100Z,14.20
2023-04-19T18:04:53.190Z,14.16
2023-04-19T18:07:19.852Z,14.11
2023-04-19T18:09:46.497Z,14.08
2023-04-19T18:12:13.037Z,14.04
2023-04-19T18:14:39.709Z,14.02
2023-04-19T18:17:06.538Z,13.97
2023-04-19T18:19:33.185Z,13.90
2023-04-19T18:22:01.323Z,13.86
2023-04-19T18:24:28.306Z,13.84
2023-04-19T18:26:54.924Z,13.81
2023-04-19T18:29:23.179Z,13.79
2023-04-19T18:31:49.828Z,13.76
2023-04-19T18:34:16.551Z,13.72
2023-04-19T18:36:43.168Z,13.68
2023-04-19T18:39:10.522Z,13.64
2023-04-19T18:41:37.054Z,13.62
2023-04-19T18:46:33.284Z,13.59
2023-04-19T18:49:00.016Z,13.53
2023-04-19T18:51:28.070Z,13.48
2023-04-19T18:53:54.689Z,13.42
2023-04-19T18:56:21.552Z,13.36
2023-04-19T18:58:49.102Z,13.29
2023-04-19T19:01:15.847Z,13.26
2023-04-19T19:06:13.101Z,13.14
2023-04-19T19:08:40.214Z,13.08
2023-04-19T19:11:29.114Z,13.05
2023-04-19T19:13:53.537Z,13.00
2023-04-19T19:16:20.593Z,12.95
2023-04-19T19:18:47.183Z,12.90
2023-04-19T19:21:13.766Z,12.87
2023-04-19T19:23:42.637Z,12.85
2023-04-19T19:26:11.204Z,12.82
2023-04-19T19:28:37.831Z,12.77
2023-04-19T19:31:04.476Z,12.74
2023-04-19T19:33:32.369Z,12.71
2023-04-19T19:35:59.499Z,12.67
2023-04-19T19:38:26.207Z,12.64
2023-04-19T19:41:30.994Z,12.60
2023-04-19T19:43:39.947Z,12.54
2023-04-19T19:46:06.834Z,12.51
2023-04-19T19:48:39.169Z,12.48
2023-04-19T19:51:36.290Z,12.44
2023-04-19T19:53:56.403Z,12.41
2023-04-19T19:56:24.480Z,12.40
2023-04-19T19:58:52.130Z,12.38
2023-04-19T20:01:21.848Z,12.34
2023-04-19T20:03:48.999Z,12.33
2023-04-19T20:08:47.239Z,12.28
2023-04-19T20:11:13.979Z,12.27
2023-04-19T20:13:40.662Z,12.25
2023-04-19T20:16:07.556Z,12.24
2023-04-19T20:18:35.047Z,12.23
2023-04-19T20:21:01.660Z,12.21
2023-04-19T20:23:28.204Z,12.18
2023-04-19T20:25:54.738Z,12.16
2023-04-19T20:28:21.310Z,12.13
2023-04-19T20:30:48.068Z,12.12
2023-04-19T20:33:14.658Z,12.08
2023-04-19T20:35:42.158Z,12.06
2023-04-19T20:38:09.747Z,12.04
2023-04-19T20:40:36.381Z,12.05
2023-04-19T20:43:03.411Z,12.06
2023-04-19T20:45:30.032Z,12.03
2023-04-19T20:47:58.570Z,11.99
2023-04-19T20:50:25.615Z,11.97
2023-04-19T20:52:52.220Z,11.97
2023-04-19T20:55:18.978Z,11.93
2023-04-19T20:57:46.846Z,11.88
2023-04-19T21:00:16.686Z,11.85
2023-04-19T21:02:44.379Z,11.82
2023-04-19T21:05:11.458Z,11.78
2023-04-19T21:07:38.163Z,11.76
2023-04-19T21:10:05.745Z,11.74
2023-04-19T21:12:33.427Z,11.72
2023-04-19T21:15:00.167Z,11.71
2023-04-19T21:17:26.901Z,11.74
2023-04-19T21:19:53.553Z,11.75
2023-04-19T21:22:20.280Z,11.74
2023-04-19T21:24:46.904Z,11.70
2023-04-19T21:27:13.477Z,11.63
2023-04-19T21:29:40.028Z,11.58
2023-04-19T21:32:06.704Z,11.52
2023-04-19T21:34:34.177Z,11.46
2023-04-19T21:37:00.812Z,11.39
2023-04-19T21:39:27.461Z,11.34
2023-04-19T21:41:54.062Z,11.28
2023-04-19T21:44:20.638Z,11.21
2023-04-19T21:46:47.303Z,11.16
2023-04-19T21:49:13.919Z,11.10
2023-04-19T21:51:41.149Z,11.02
2023-04-19T21:54:07.748Z,10.94
2023-04-19T21:56:34.311Z,10.84
2023-04-19T21:59:00.927Z,10.77
2023-04-19T22:01:27.733Z,10.69
2023-04-19T22:03:54.606Z,10.65
2023-04-19T22:06:21.935Z,10.62
2023-04-19T22:08:49.781Z,10.54
2023-04-19T22:11:20.768Z,10.46
2023-04-19T22:13:47.291Z,10.41
2023-04-19T22:16:15.038Z,10.35
2023-04-19T22:18:41.645Z,10.28
2023-04-19T22:21:14.036Z,10.22
2023-04-19T22:23:40.835Z,10.17
2023-04-19T22:26:07.779Z,10.12
2023-04-19T22:28:35.999Z,10.07
2023-04-19T22:31:02.589Z,10.03
2023-04-19T22:33:29.179Z,9.97
2023-04-19T22:35:55.726Z,9.93
2023-04-19T22:38:22.285Z,9.91
2023-04-19T22:40:48.854Z,9.85
2023-04-19T22:43:15.977Z,9.80
2023-04-19T22:45:44.678Z,9.76
2023-04-19T22:48:12.497Z,9.69
2023-04-19T22:50:39.048Z,9.64
2023-04-19T22:53:05.676Z,9.57
2023-04-19T22:55:32.322Z,9.50
2023-04-19T22:57:58.872Z,9.43
2023-04-19T23:00:26.544Z,9.38
2023-04-19T23:02:53.267Z,9.46
2023-04-19T23:05:20.152Z,9.70
2023-04-19T23:07:46.712Z,9.94
2023-04-19T23:10:13.454Z,10.13
2023-04-19T23:12:40.108Z,10.27
2023-04-19T23:15:07.339Z,10.38
2023-04-19T23:17:34.658Z,10.46
2023-04-19T23:20:01.339Z,10.55
2023-04-19T23:22:27.951Z,10.55
2023-04-19T23:24:54.503Z,10.50
2023-04-19T23:27:21.132Z,10.43
2023-04-19T23:29:47.748Z,10.40
2023-04-19T23:32:14.268Z,10.45
2023-04-19T23:34:41.496Z,10.43
2023-04-19T23:37:08.898Z,10.37
2023-04-19T23:39:35.427Z,10.32
2023-04-19T23:42:02.254Z,10.37
2023-04-19T23:44:29.279Z,10.41
2023-04-19T23:46:56.114Z,10.44
2023-04-19T23:49:22.707Z,10.45
2023-04-19T23:51:50.406Z,10.49
2023-04-19T23:54:22.264Z,10.52
2023-04-19T23:56:49.532Z,10.54
2023-04-19T23:59:16.267Z,10.52
